Impacts TAF Board INFO
FOR SITUATIONAL AWARENESS. NOT TO BE USED FOR FLIGHT PLANNING PURPOSES.
IDs:

KANB - Anniston Metro, AL, US

Issued at 1723 UTC 22 Apr 2018
Updated at 2020 UTC 22 Apr 2018
Potential Impact None Slight Moderate High
Time1953Z 22/21Z 22/22Z 22/23Z 23/00Z 23/01Z 23/02Z 23/03Z 23/04Z 23/05Z 23/06Z 23/07Z 23/08Z 23/09Z>>
Type OBS PRVL PRVL
  [TEMP]  
PRVL
  [TEMP]  
PRVL
  [TEMP]  
PRVL
  [TEMP]  
PRVL PRVL PRVL PRVL PRVL PRVL PRVL PRVL
VIS 9 3 3
  [1]  
3
  [1]  
3
  [1]  
3
  [1]  
3 3 >6 >6 >6 >6 >6 >6
CIG 14 15 15
  [15]  
15
  [15]  
15
  [15]  
15
  [15]  
15 15 15 15 15 15 7 7
Cover OVC OVC OVC
  [OVC]  
OVC
  [OVC]  
OVC
  [OVC]  
OVC
  [OVC]  
OVC OVC BKN BKN BKN BKN BKN BKN
FltCat MVFR MVFR MVFR
  [IFR]  
MVFR
  [IFR]  
MVFR
  [IFR]  
MVFR
  [IFR]  
MVFR MVFR MVFR MVFR MVFR MVFR IFR IFR
WX -- SHRA SHRA
  [TSRA]  
SHRA
  [TSRA]  
SHRA
  [TSRA]  
SHRA
  [TSRA]  
SHRA SHRA -- -- -- -- -- --
WDir 90 100 100
[100]
100
[100]
100
[100]
100
[100]
100 100 150 150 150 150 180 180
WSpd 10 13 13
  [13]  
13
  [13]  
13
  [13]  
13
  [13]  
13 13 5 5 5 5 5 5
WGst 17 20 20
  [20]  
20
  [20]  
20
  [20]  
20
  [20]  
20 20 -- -- -- -- -- --

Raw TAF
KANB 221723Z 2218/2318 10013G20KT 3SM SHRA OVC015
  TEMPO 2222/2302 1SM TSRA SCT007CB OVC015
  FM230400 15005KT P6SM BKN015
  FM230800 18005KT P6SM BKN007
  FM231600 23005KT 6SM -DZ OVC015


Raw METAR
KANB 221953Z AUTO 09010G17KT 9SM OVC014 17/15 A3001 RMK AO2 RAE1859 PRESFR SLP158 P0000 T01670150
KANB 221908Z AUTO 10010G15KT 9SM BKN014 OVC020 17/15 A3004 RMK AO2 RAE1859 P0000 T01670150
KANB 221853Z AUTO 08008KT 9SM -RA FEW014 BKN020 OVC034 17/15 A3004 RMK AO2 RAB07 SLP170 P0007 T01670150
KANB 221753Z AUTO 10008KT 10SM OVC015 17/14 A3008 RMK AO2 RAB1654E20 SLP184 P0000 60000 T01720144 10172 20167 58020

METAR Board
Radar Display
Forecast Discussion

FOR SITUATIONAL AWARENESS. NOT TO BE USED FOR FLIGHT PLANNING PURPOSES.